Time;durP1;ratioP1;P1;durP2;ratioP2;P2;SDS_P1;SDS_P2;PMS_P1;PMS_P2;Temp;Humidity;BMP_temperature;BMP_pressure;BME280_temperature;BME280_humidity;BME280_pressure;Samples;Min_cycle;Max_cycle;Signal;HPM_P1;HPM_P2
2021/05/31 00:02:11;;;;;;;10.00;5.93;;;12.00;99.90;;;;;;5042220;28;20513;-46
2021/05/31 00:04:36;;;;;;;9.50;6.40;;;11.90;99.90;;;;;;5041316;28;20025;-47
2021/05/31 00:07:11;;;;;;;7.35;5.70;;;11.90;99.90;;;;;;5040478;28;20017;-47
2021/05/31 00:09:39;;;;;;;8.18;6.38;;;11.90;99.90;;;;;;5043526;28;20029;-47
2021/05/31 00:12:08;;;;;;;8.77;6.28;;;11.80;99.90;;;;;;5051385;28;20450;-47
2021/05/31 00:14:34;;;;;;;9.60;6.70;;;11.80;99.90;;;;;;5051754;28;20021;-46
2021/05/31 00:17:00;;;;;;;12.35;6.40;;;11.80;99.90;;;;;;5050160;28;20029;-49
2021/05/31 00:19:26;;;;;;;8.07;6.18;;;11.80;99.90;;;;;;5050956;28;20025;-46
2021/05/31 00:21:52;;;;;;;11.05;6.13;;;11.70;99.90;;;;;;5051364;28;20044;-47
2021/05/31 00:24:18;;;;;;;8.57;6.07;;;11.70;99.90;;;;;;5051723;28;20360;-47
2021/05/31 00:26:44;;;;;;;7.65;6.07;;;11.60;99.90;;;;;;5051163;28;20096;-48
2021/05/31 00:29:09;;;;;;;7.22;5.40;;;11.60;99.90;;;;;;5050489;28;20113;-47
2021/05/31 00:31:35;;;;;;;7.85;5.53;;;11.60;99.90;;;;;;5051131;28;20509;-47
2021/05/31 00:34:01;;;;;;;8.57;5.85;;;11.60;99.90;;;;;;5051341;28;20505;-50
2021/05/31 00:36:27;;;;;;;6.93;6.22;;;11.50;99.90;;;;;;5050989;28;20552;-47
2021/05/31 00:38:53;;;;;;;8.57;5.90;;;11.50;99.90;;;;;;5049269;28;20025;-48
2021/05/31 00:41:20;;;;;;;9.68;6.47;;;11.50;99.90;;;;;;5041744;28;20083;-49
2021/05/31 00:43:46;;;;;;;12.30;6.63;;;11.50;99.90;;;;;;5041365;28;20021;-47
2021/05/31 00:46:11;;;;;;;8.50;6.25;;;11.40;99.90;;;;;;5039876;28;20013;-47
2021/05/31 00:48:38;;;;;;;8.60;6.25;;;11.40;99.90;;;;;;5038455;28;20043;-47
2021/05/31 00:51:07;;;;;;;9.38;6.30;;;11.40;99.90;;;;;;5041123;28;20037;-45
2021/05/31 00:53:35;;;;;;;7.55;6.05;;;11.40;99.90;;;;;;5038456;28;20078;-47
2021/05/31 00:56:02;;;;;;;9.27;6.00;;;11.30;99.90;;;;;;5041426;28;20028;-46
2021/05/31 00:58:29;;;;;;;8.82;6.38;;;11.30;99.90;;;;;;5040650;28;20025;-48
2021/05/31 01:00:56;;;;;;;13.23;6.68;;;11.20;99.90;;;;;;5039726;28;20546;-46
2021/05/31 01:03:23;;;;;;;7.32;6.07;;;11.20;99.90;;;;;;5039342;28;20128;-46
2021/05/31 01:05:49;;;;;;;8.52;5.82;;;11.10;99.90;;;;;;5041107;28;20043;-46
2021/05/31 01:08:23;;;;;;;9.43;6.28;;;11.10;99.90;;;;;;5037522;28;20017;-46
2021/05/31 01:11:13;;;;;;;10.05;6.10;;;11.10;99.90;;;;;;5041142;28;20498;-47
2021/05/31 01:13:48;;;;;;;9.82;5.57;;;11.00;99.90;;;;;;5034669;28;20045;-47
2021/05/31 01:16:23;;;;;;;8.70;5.90;;;10.90;99.90;;;;;;5039453;28;20449;-48
2021/05/31 01:18:50;;;;;;;8.70;6.07;;;10.90;99.90;;;;;;5038132;28;20033;-47
2021/05/31 01:21:57;;;;;;;9.98;5.75;;;10.80;99.90;;;;;;5039916;28;20501;-48
2021/05/31 01:24:47;;;;;;;8.07;5.63;;;10.80;99.90;;;;;;5040591;28;20025;-50
2021/05/31 01:27:19;;;;;;;9.40;5.70;;;10.70;99.90;;;;;;5037664;28;20028;-47
2021/05/31 01:29:51;;;;;;;9.95;5.95;;;10.60;99.90;;;;;;5037318;28;20372;-46
2021/05/31 01:32:19;;;;;;;7.63;5.85;;;10.60;99.90;;;;;;5031725;28;20026;-46
2021/05/31 01:34:45;;;;;;;8.57;6.22;;;10.60;99.90;;;;;;5030121;28;20037;-47
2021/05/31 01:37:14;;;;;;;7.97;5.55;;;10.50;99.90;;;;;;5028357;28;20083;-46
2021/05/31 01:39:44;;;;;;;7.20;5.50;;;10.50;99.90;;;;;;5029481;28;20120;-49
2021/05/31 01:42:10;;;;;;;5.50;4.70;;;10.50;99.90;;;;;;5028568;28;20116;-49
2021/05/31 01:44:37;;;;;;;7.30;6.00;;;10.40;99.90;;;;;;5029883;28;20022;-46
2021/05/31 01:47:03;;;;;;;9.35;6.88;;;10.40;99.90;;;;;;5029723;28;20025;-48
2021/05/31 01:49:29;;;;;;;8.93;6.18;;;10.40;99.90;;;;;;5029063;28;20025;-51
2021/05/31 01:51:55;;;;;;;8.32;6.03;;;10.40;99.90;;;;;;5029535;28;20025;-47
2021/05/31 01:54:22;;;;;;;7.97;6.13;;;10.30;99.90;;;;;;5029452;28;20039;-47
2021/05/31 01:56:50;;;;;;;7.88;5.70;;;10.30;99.90;;;;;;5029793;28;20096;-50
2021/05/31 01:59:20;;;;;;;8.02;5.93;;;10.30;99.90;;;;;;5028836;28;20032;-49
2021/05/31 02:01:47;;;;;;;9.00;5.80;;;10.30;99.90;;;;;;5029642;28;20073;-45
2021/05/31 02:04:13;;;;;;;7.78;5.43;;;10.30;99.90;;;;;;5029660;28;20032;-52
2021/05/31 02:06:38;;;;;;;6.50;5.43;;;10.20;99.90;;;;;;5029320;28;20364;-48
2021/05/31 02:09:05;;;;;;;9.38;5.40;;;10.20;99.90;;;;;;5028113;28;20044;-48
2021/05/31 02:12:04;;;;;;;8.40;5.68;;;10.10;99.90;;;;;;5028972;28;20033;-47
2021/05/31 02:14:49;;;;;;;9.38;5.68;;;10.10;99.90;;;;;;5029377;28;20017;-47
2021/05/31 02:17:41;;;;;;;9.80;6.53;;;10.00;99.90;;;;;;5029096;28;20035;-46
2021/05/31 02:20:12;;;;;;;8.07;5.75;;;10.00;99.90;;;;;;5023612;28;20271;-46
2021/05/31 02:22:44;;;;;;;9.25;5.47;;;10.00;99.90;;;;;;5029171;28;20026;-49
2021/05/31 02:25:12;;;;;;;11.10;5.80;;;10.00;99.90;;;;;;5029016;28;20025;-46
2021/05/31 02:27:38;;;;;;;8.30;5.65;;;10.00;99.90;;;;;;5028810;28;20399;-46
2021/05/31 02:30:05;;;;;;;7.35;5.28;;;10.00;99.90;;;;;;5029300;28;20025;-48
2021/05/31 02:32:31;;;;;;;5.63;4.63;;;9.90;99.90;;;;;;5029033;28;20075;-46
2021/05/31 02:34:57;;;;;;;8.13;5.47;;;9.90;99.90;;;;;;5028949;28;20053;-46
2021/05/31 02:37:39;;;;;;;8.95;5.88;;;9.90;99.90;;;;;;5027082;28;20399;-49
2021/05/31 02:40:07;;;;;;;8.02;5.13;;;9.90;99.90;;;;;;5028797;28;20045;-49
2021/05/31 02:42:40;;;;;;;7.63;5.45;;;9.80;99.90;;;;;;5028760;28;20029;-47
2021/05/31 02:45:07;;;;;;;8.63;6.43;;;9.80;99.90;;;;;;5028664;28;20064;-46
2021/05/31 02:47:32;;;;;;;7.40;5.50;;;9.80;99.90;;;;;;5028196;28;20057;-46
2021/05/31 02:49:58;;;;;;;10.15;5.55;;;9.70;99.90;;;;;;5028849;28;20063;-47
2021/05/31 02:52:23;;;;;;;8.93;5.20;;;9.60;99.90;;;;;;5029102;28;20104;-49
2021/05/31 02:54:49;;;;;;;9.35;5.80;;;9.60;99.90;;;;;;5028796;28;20040;-49
2021/05/31 02:57:14;;;;;;;7.53;5.22;;;9.60;99.90;;;;;;5028621;28;20026;-46
2021/05/31 02:59:40;;;;;;;9.15;5.90;;;9.60;99.90;;;;;;5028075;28;20064;-48
2021/05/31 03:02:05;;;;;;;6.88;4.93;;;9.50;99.90;;;;;;5028170;28;20038;-48
2021/05/31 03:04:30;;;;;;;8.88;6.15;;;9.50;99.90;;;;;;5028730;28;20120;-48
2021/05/31 03:06:56;;;;;;;8.55;5.68;;;9.50;99.90;;;;;;5028439;28;20032;-50
2021/05/31 03:09:21;;;;;;;8.30;5.65;;;9.40;99.90;;;;;;5026608;28;20036;-46
2021/05/31 03:11:47;;;;;;;7.10;5.30;;;9.30;99.90;;;;;;5027290;28;20613;-47
2021/05/31 03:14:12;;;;;;;10.77;5.85;;;9.30;99.90;;;;;;5028898;28;20029;-48
2021/05/31 03:16:38;;;;;;;7.65;5.63;;;9.20;99.90;;;;;;5028444;28;20029;-50
2021/05/31 03:19:03;;;;;;;8.57;5.65;;;9.20;99.90;;;;;;5027745;28;20161;-46
2021/05/31 03:21:29;;;;;;;9.95;6.32;;;9.10;99.90;;;;;;5028343;28;20030;-47
2021/05/31 03:23:56;;;;;;;7.93;5.28;;;9.10;99.90;;;;;;5028357;28;20032;-46
2021/05/31 03:26:21;;;;;;;8.93;5.88;;;9.10;99.90;;;;;;5028453;28;20034;-47
2021/05/31 03:28:47;;;;;;;11.63;6.47;;;9.10;99.90;;;;;;5027616;28;20027;-46
2021/05/31 03:31:12;;;;;;;9.43;6.25;;;9.00;99.90;;;;;;5028355;28;20386;-47
2021/05/31 03:33:38;;;;;;;10.38;6.28;;;8.90;99.90;;;;;;5028407;28;20029;-46
2021/05/31 03:36:04;;;;;;;8.32;6.15;;;8.90;99.90;;;;;;5028511;28;20029;-47
2021/05/31 03:38:29;;;;;;;10.82;5.93;;;8.90;99.90;;;;;;5027874;28;20017;-48
2021/05/31 03:40:55;;;;;;;9.82;6.32;;;8.90;99.90;;;;;;5028134;28;20066;-47
2021/05/31 03:43:20;;;;;;;10.55;6.88;;;9.00;99.90;;;;;;5034152;28;20025;-48
2021/05/31 03:45:46;;;;;;;8.57;5.82;;;9.00;99.90;;;;;;5037938;28;20013;-48
2021/05/31 03:48:12;;;;;;;7.57;5.80;;;9.00;99.90;;;;;;5035691;28;20386;-48
2021/05/31 03:50:39;;;;;;;9.15;5.93;;;9.00;99.90;;;;;;5037905;28;20371;-49
2021/05/31 03:53:05;;;;;;;11.45;6.15;;;9.00;99.90;;;;;;5038100;28;20018;-48
2021/05/31 03:55:30;;;;;;;9.57;5.90;;;9.00;99.90;;;;;;5036476;28;20466;-49
2021/05/31 03:57:56;;;;;;;11.07;6.45;;;9.00;99.90;;;;;;5037074;28;20025;-47
2021/05/31 04:00:22;;;;;;;8.60;5.38;;;9.00;99.90;;;;;;5038084;28;20029;-50
2021/05/31 04:02:48;;;;;;;12.38;6.18;;;9.10;99.90;;;;;;5040324;28;20025;-48
2021/05/31 04:05:15;;;;;;;11.02;6.25;;;9.10;99.90;;;;;;5046568;28;20027;-47
2021/05/31 04:13:09;;;;;;;9.57;5.63;;;9.20;99.90;;;;;;5049639;28;20309;-46
2021/05/31 04:15:35;;;;;;;7.97;6.20;;;9.20;99.90;;;;;;5051267;28;20104;-48
2021/05/31 04:18:00;;;;;;;8.95;5.80;;;9.20;99.90;;;;;;5050806;28;20032;-48
2021/05/31 04:20:26;;;;;;;7.65;5.22;;;9.20;99.90;;;;;;5051296;28;20029;-47
2021/05/31 04:22:52;;;;;;;10.98;5.88;;;9.20;99.90;;;;;;5051442;28;20025;-47
2021/05/31 04:25:17;;;;;;;8.25;6.00;;;9.20;99.90;;;;;;5051233;28;20021;-48
2021/05/31 04:27:43;;;;;;;6.63;5.68;;;9.20;99.90;;;;;;5051089;28;20049;-47
2021/05/31 04:30:09;;;;;;;9.43;5.80;;;9.30;99.90;;;;;;5051265;28;20107;-47
2021/05/31 04:32:35;;;;;;;8.57;5.70;;;9.30;99.90;;;;;;5045077;28;20058;-49
2021/05/31 04:35:00;;;;;;;8.43;6.18;;;9.40;99.90;;;;;;5033875;28;20025;-46
2021/05/31 04:37:26;;;;;;;7.57;5.63;;;9.40;99.90;;;;;;5030797;28;20056;-47
2021/05/31 04:39:52;;;;;;;9.75;6.22;;;9.40;99.90;;;;;;5041565;28;20413;-46
2021/05/31 04:42:18;;;;;;;9.07;5.72;;;9.40;99.90;;;;;;5038828;28;20372;-46
2021/05/31 04:44:43;;;;;;;9.57;6.57;;;9.50;99.90;;;;;;5040210;28;20362;-48
2021/05/31 04:47:09;;;;;;;8.30;5.60;;;9.50;99.90;;;;;;5040638;28;20382;-46
2021/05/31 04:49:34;;;;;;;8.35;5.47;;;9.50;99.90;;;;;;5041511;28;20029;-47
2021/05/31 04:52:00;;;;;;;7.88;5.35;;;9.60;99.90;;;;;;5041089;28;20060;-47
2021/05/31 04:54:26;;;;;;;10.48;6.38;;;9.60;99.90;;;;;;5042706;28;20029;-47
2021/05/31 04:56:52;;;;;;;9.85;5.70;;;9.60;99.90;;;;;;5042320;28;20033;-48
2021/05/31 04:59:18;;;;;;;8.85;5.32;;;9.60;99.90;;;;;;5040546;28;20536;-47
2021/05/31 05:01:43;;;;;;;8.85;5.88;;;9.70;99.90;;;;;;5030391;28;20033;-47
2021/05/31 05:04:09;;;;;;;10.27;5.65;;;9.70;99.90;;;;;;5030515;28;20055;-47
2021/05/31 05:06:34;;;;;;;9.55;5.25;;;9.80;99.90;;;;;;5030537;28;20030;-46
2021/05/31 05:09:00;;;;;;;8.60;5.65;;;9.80;99.90;;;;;;5035645;28;20052;-46
2021/05/31 05:11:26;;;;;;;6.78;5.07;;;9.80;99.90;;;;;;5037299;28;20061;-46
2021/05/31 05:13:52;;;;;;;9.68;5.05;;;9.90;99.90;;;;;;5043002;28;20036;-45
2021/05/31 05:16:21;;;;;;;10.40;5.72;;;9.90;99.90;;;;;;5040582;28;20449;-46
2021/05/31 05:18:48;;;;;;;10.40;5.07;;;10.00;99.90;;;;;;5043787;28;20029;-47
2021/05/31 05:21:18;;;;;;;15.15;5.93;;;10.00;99.90;;;;;;5039209;28;20108;-49
2021/05/31 05:23:46;;;;;;;8.00;5.57;;;10.10;99.90;;;;;;5035706;28;20100;-46
2021/05/31 05:26:12;;;;;;;8.88;5.20;;;10.10;99.90;;;;;;5039203;28;20024;-46
2021/05/31 05:28:38;;;;;;;9.20;6.00;;;10.10;99.90;;;;;;5034269;28;20124;-47
2021/05/31 05:31:08;;;;;;;7.53;4.93;;;10.20;99.90;;;;;;5034873;28;20052;-46
2021/05/31 05:33:35;;;;;;;8.27;4.82;;;10.20;99.90;;;;;;5047974;28;20033;-46
2021/05/31 05:49:47;;;;;;;11.07;4.97;;;10.40;99.90;;;;;;5040800;28;20021;-46
2021/05/31 05:52:13;;;;;;;9.68;5.70;;;10.40;99.90;;;;;;5042265;28;20465;-47
2021/05/31 05:54:39;;;;;;;8.48;5.00;;;10.50;99.90;;;;;;5048780;28;20032;-49
2021/05/31 05:57:04;;;;;;;8.32;4.35;;;10.50;99.90;;;;;;5028983;28;20284;-47
2021/05/31 05:59:30;;;;;;;12.05;5.60;;;10.60;99.90;;;;;;5029039;28;20068;-47
2021/05/31 06:01:56;;;;;;;10.35;4.72;;;10.70;99.90;;;;;;5028577;28;20125;-47
2021/05/31 06:04:21;;;;;;;7.20;4.43;;;10.70;99.90;;;;;;5028715;28;20159;-47
2021/05/31 06:06:47;;;;;;;9.95;4.50;;;10.70;99.90;;;;;;5028739;28;20112;-49
2021/05/31 06:09:15;;;;;;;7.00;4.38;;;10.70;99.90;;;;;;5038450;28;20078;-49
2021/05/31 06:11:41;;;;;;;10.02;4.85;;;10.80;99.90;;;;;;5040091;28;20061;-45
2021/05/31 06:14:07;;;;;;;8.43;4.70;;;10.90;99.90;;;;;;5038590;28;20025;-45
2021/05/31 06:16:33;;;;;;;10.00;5.05;;;10.80;99.90;;;;;;5037769;28;20030;-46
2021/05/31 06:18:58;;;;;;;9.73;5.38;;;10.90;99.90;;;;;;5035670;28;20082;-45
2021/05/31 06:21:25;;;;;;;8.07;4.30;;;11.00;99.90;;;;;;5041062;28;20029;-45
2021/05/31 06:23:50;;;;;;;7.20;4.35;;;11.00;99.90;;;;;;5068285;28;20093;-46
2021/05/31 06:26:16;;;;;;;7.80;4.78;;;11.10;99.90;;;;;;5058591;28;20534;-46
2021/05/31 06:28:42;;;;;;;8.10;4.75;;;11.20;99.90;;;;;;5049928;22;20149;-49
2021/05/31 06:31:07;;;;;;;13.23;5.53;;;11.40;99.90;;;;;;5032312;28;20031;-47
2021/05/31 06:33:33;;;;;;;6.82;4.15;;;11.40;99.90;;;;;;5015971;28;20116;-47
2021/05/31 06:35:59;;;;;;;8.73;5.55;;;11.50;99.90;;;;;;5026980;28;20081;-50
2021/05/31 06:38:24;;;;;;;11.70;4.80;;;11.50;99.90;;;;;;5027211;28;20021;-49
2021/05/31 06:40:51;;;;;;;9.32;4.38;;;11.60;99.90;;;;;;5027344;28;20037;-48
2021/05/31 06:43:17;;;;;;;10.60;4.88;;;11.60;99.90;;;;;;5028179;28;20029;-48
2021/05/31 06:45:43;;;;;;;11.20;4.57;;;11.70;99.90;;;;;;5028091;28;20032;-48
2021/05/31 06:48:10;;;;;;;9.15;4.65;;;11.70;99.90;;;;;;5009336;28;20028;-46
2021/05/31 06:50:37;;;;;;;7.50;4.97;;;11.80;99.90;;;;;;5027987;28;20029;-48
2021/05/31 06:53:04;;;;;;;6.38;4.50;;;11.80;99.90;;;;;;5028117;28;20033;-49
2021/05/31 06:55:31;;;;;;;6.43;4.40;;;11.80;99.90;;;;;;5028043;28;20108;-47
2021/05/31 06:57:58;;;;;;;7.10;4.13;;;11.90;99.90;;;;;;5026897;28;20130;-51
2021/05/31 07:00:26;;;;;;;4.63;3.50;;;12.00;99.90;;;;;;5027521;28;20025;-50
2021/05/31 07:02:53;;;;;;;7.60;4.30;;;12.10;99.90;;;;;;5027704;28;20041;-47
2021/05/31 07:05:20;;;;;;;4.45;3.15;;;12.20;99.90;;;;;;5027831;28;20104;-47
2021/05/31 07:07:47;;;;;;;7.03;3.80;;;12.30;99.90;;;;;;5027517;28;20030;-50
2021/05/31 07:10:14;;;;;;;6.15;3.80;;;12.40;99.90;;;;;;5042407;28;20028;-50
2021/05/31 07:12:41;;;;;;;6.43;3.92;;;12.50;99.90;;;;;;5035238;28;20034;-53
2021/05/31 07:15:07;;;;;;;5.90;3.63;;;12.60;99.90;;;;;;5008822;28;20423;-48
2021/05/31 07:17:34;;;;;;;6.05;3.42;;;12.70;99.90;;;;;;5026554;28;20557;-48
2021/05/31 07:20:01;;;;;;;7.35;4.35;;;12.70;99.90;;;;;;5028119;28;20032;-47
2021/05/31 07:22:27;;;;;;;8.65;3.80;;;12.90;99.90;;;;;;5030228;28;20606;-48
2021/05/31 07:24:53;;;;;;;8.57;3.55;;;13.00;99.90;;;;;;5027294;28;20112;-47
2021/05/31 07:27:19;;;;;;;4.78;3.60;;;13.30;99.90;;;;;;5027036;28;20022;-48
2021/05/31 07:29:46;;;;;;;4.82;2.90;;;13.40;99.90;;;;;;5027295;28;20040;-50
2021/05/31 07:32:12;;;;;;;5.65;2.45;;;13.60;99.90;;;;;;5027469;28;20495;-47
2021/05/31 07:34:37;;;;;;;6.57;2.60;;;13.70;99.20;;;;;;5027739;28;20021;-46
2021/05/31 07:37:04;;;;;;;4.72;2.90;;;13.80;98.70;;;;;;5027631;28;20029;-48
2021/05/31 07:39:29;;;;;;;6.32;3.05;;;14.00;99.00;;;;;;5026898;28;20045;-49
2021/05/31 07:41:55;;;;;;;3.20;2.90;;;14.00;98.90;;;;;;5027060;28;20491;-49
2021/05/31 07:44:20;;;;;;;4.13;3.03;;;14.20;98.30;;;;;;5027840;28;20108;-49
2021/05/31 07:46:46;;;;;;;5.93;3.03;;;14.30;97.90;;;;;;5010748;28;20049;-49
2021/05/31 07:49:12;;;;;;;4.57;2.42;;;14.40;96.70;;;;;;5030659;28;20040;-47
2021/05/31 07:51:43;;;;;;;5.75;3.10;;;14.60;96.50;;;;;;5031335;28;20022;-47
2021/05/31 07:54:09;;;;;;;;;;;14.70;95.10;;;;;;5032015;28;21105;-46
2021/05/31 07:56:36;;;;;;;5.13;2.08;;;14.90;93.70;;;;;;5031660;28;19912;-48
2021/05/31 07:59:02;;;;;;;4.00;2.38;;;15.00;93.80;;;;;;5030683;28;20029;-47
2021/05/31 08:01:27;;;;;;;2.97;2.28;;;15.10;93.20;;;;;;5030786;28;20082;-48
2021/05/31 08:03:53;;;;;;;5.60;2.40;;;15.30;90.60;;;;;;5030842;28;20025;-48
2021/05/31 08:06:18;;;;;;;3.72;2.55;;;15.60;88.60;;;;;;5030694;28;20150;-48
2021/05/31 08:08:44;;;;;;;6.00;1.98;;;16.00;87.40;;;;;;5030431;28;20025;-49
2021/05/31 08:11:11;;;;;;;2.47;1.98;;;16.50;85.40;;;;;;5030419;28;20653;-49
2021/05/31 08:13:37;;;;;;;2.90;2.10;;;17.00;87.30;;;;;;5030992;28;20025;-48
2021/05/31 08:16:04;;;;;;;2.65;1.63;;;17.90;80.80;;;;;;5030758;28;20056;-49
2021/05/31 08:18:30;;;;;;;2.83;2.00;;;19.10;71.60;;;;;;5030532;28;20032;-50
2021/05/31 08:20:56;;;;;;;2.75;1.90;;;20.50;58.40;;;;;;5030836;28;20422;-49
2021/05/31 08:23:21;;;;;;;3.33;1.83;;;21.90;56.80;;;;;;5030006;28;20216;-48
2021/05/31 08:25:47;;;;;;;3.42;1.67;;;22.90;53.20;;;;;;5030390;28;20025;-49
2021/05/31 08:28:13;;;;;;;3.50;2.28;;;24.50;47.90;;;;;;5029919;28;20029;-48
2021/05/31 08:30:41;;;;;;;3.38;1.67;;;25.60;45.80;;;;;;5030714;28;20056;-49
2021/05/31 08:33:09;;;;;;;4.47;2.17;;;26.30;44.10;;;;;;5030166;28;20080;-50
2021/05/31 08:35:39;;;;;;;3.00;1.88;;;26.40;42.60;;;;;;5032504;28;20126;-50
2021/05/31 08:38:05;;;;;;;2.72;1.38;;;27.10;41.40;;;;;;5016612;28;20723;-50
2021/05/31 08:40:31;;;;;;;3.42;1.65;;;27.20;40.00;;;;;;5031215;28;20498;-49
2021/05/31 08:42:57;;;;;;;4.25;1.90;;;27.90;39.60;;;;;;5044778;28;20031;-50
2021/05/31 08:45:24;;;;;;;1.98;1.33;;;28.00;36.40;;;;;;5050171;28;20453;-50
2021/05/31 08:47:52;;;;;;;3.55;1.77;;;28.60;37.00;;;;;;5044117;28;20071;-50
2021/05/31 08:50:24;;;;;;;4.07;1.90;;;28.80;36.60;;;;;;5030303;28;20028;-50
2021/05/31 08:52:52;;;;;;;3.08;1.40;;;30.40;36.00;;;;;;5029742;28;20037;-51
2021/05/31 08:55:20;;;;;;;2.03;1.70;;;32.00;31.70;;;;;;5011837;28;20079;-51
2021/05/31 08:57:47;;;;;;;1.65;1.25;;;31.50;32.40;;;;;;5029356;28;20426;-50
2021/05/31 09:00:15;;;;;;;2.05;1.33;;;31.20;32.50;;;;;;5029504;28;20098;-50
2021/05/31 09:02:42;;;;;;;3.88;1.30;;;30.60;31.50;;;;;;5032549;28;20475;-47
2021/05/31 09:05:09;;;;;;;2.92;1.50;;;31.00;32.50;;;;;;5033443;28;20053;-48
2021/05/31 09:07:35;;;;;;;3.58;1.55;;;30.70;33.70;;;;;;5029494;28;20080;-50
2021/05/31 09:10:04;;;;;;;3.97;1.60;;;30.70;32.50;;;;;;5013313;28;20017;-50
2021/05/31 09:12:34;;;;;;;2.83;1.45;;;32.00;30.90;;;;;;5037042;28;20540;-50
2021/05/31 09:15:04;;;;;;;4.80;1.88;;;32.10;32.80;;;;;;5032302;28;20387;-49
2021/05/31 09:17:32;;;;;;;3.17;1.92;;;31.70;32.20;;;;;;5028534;28;20019;-48
2021/05/31 09:19:58;;;;;;;3.33;1.42;;;31.00;33.40;;;;;;5029613;28;20021;-51
2021/05/31 09:22:24;;;;;;;1.75;1.65;;;31.20;32.40;;;;;;5029694;28;20033;-48
2021/05/31 09:24:58;;;;;;;3.45;1.85;;;31.80;33.00;;;;;;5028655;28;20168;-50
2021/05/31 09:27:25;;;;;;;1.85;1.60;;;32.70;33.20;;;;;;5022906;28;20017;-51
2021/05/31 09:30:04;;;;;;;2.85;1.60;;;34.10;30.60;;;;;;5028814;28;20053;-48
2021/05/31 09:32:30;;;;;;;2.45;1.90;;;34.50;30.50;;;;;;5029297;28;20132;-47
2021/05/31 09:34:57;;;;;;;2.25;1.50;;;34.10;30.90;;;;;;5028203;28;20117;-48
2021/05/31 09:37:22;;;;;;;3.88;1.52;;;34.00;30.50;;;;;;5028679;28;20383;-49
2021/05/31 09:40:05;;;;;;;2.03;1.70;;;33.50;32.10;;;;;;5029269;28;20029;-49
2021/05/31 09:42:32;;;;;;;3.50;1.85;;;33.50;30.50;;;;;;5029126;28;20419;-46
2021/05/31 09:45:01;;;;;;;2.55;2.10;;;34.40;30.20;;;;;;5029255;28;20021;-47
2021/05/31 09:47:28;;;;;;;2.15;1.63;;;35.10;30.60;;;;;;5027295;28;20124;-47
2021/05/31 09:49:54;;;;;;;3.03;1.90;;;34.20;32.60;;;;;;5028950;28;20018;-48
2021/05/31 09:52:19;;;;;;;2.45;1.65;;;33.90;30.50;;;;;;5029261;28;20542;-47
2021/05/31 09:54:48;;;;;;;3.00;1.80;;;33.30;31.40;;;;;;5027498;28;20038;-50
2021/05/31 09:57:20;;;;;;;2.25;1.60;;;33.70;29.80;;;;;;5028723;28;20025;-47
2021/05/31 09:59:52;;;;;;;2.67;1.90;;;34.30;29.70;;;;;;5028705;28;20424;-48
2021/05/31 10:02:27;;;;;;;2.38;1.58;;;33.20;31.10;;;;;;5028178;28;20032;-48
2021/05/31 10:05:02;;;;;;;2.05;1.52;;;33.50;29.90;;;;;;5009169;28;20037;-49
2021/05/31 10:07:43;;;;;;;2.92;1.83;;;33.50;31.00;;;;;;5008536;28;20025;-48
2021/05/31 10:10:09;;;;;;;1.80;1.38;;;33.40;32.90;;;;;;5023938;28;20052;-51
2021/05/31 10:12:38;;;;;;;2.78;1.55;;;33.00;29.70;;;;;;5028571;28;20041;-47
2021/05/31 10:15:06;;;;;;;2.63;1.70;;;33.50;30.00;;;;;;5028434;28;20025;-46
2021/05/31 10:17:32;;;;;;;2.60;1.60;;;33.20;31.60;;;;;;5028029;28;20056;-48
2021/05/31 10:19:58;;;;;;;2.50;1.52;;;33.90;29.00;;;;;;5028395;28;20080;-47
2021/05/31 10:22:24;;;;;;;2.25;1.70;;;34.90;27.60;;;;;;5028267;28;20034;-49
2021/05/31 10:24:50;;;;;;;4.22;1.67;;;34.90;29.10;;;;;;5028341;28;20036;-48
2021/05/31 10:27:18;;;;;;;3.17;1.63;;;35.00;30.10;;;;;;5027800;28;20026;-50
2021/05/31 10:29:44;;;;;;;2.45;1.77;;;34.80;29.90;;;;;;5027335;28;20043;-50
2021/05/31 10:32:12;;;;;;;2.50;1.50;;;34.80;29.80;;;;;;5025408;28;20025;-48
2021/05/31 10:34:45;;;;;;;2.97;1.90;;;35.40;28.30;;;;;;5027960;28;20022;-50
2021/05/31 10:37:25;;;;;;;2.13;1.42;;;34.60;28.80;;;;;;5027032;28;20105;-50
2021/05/31 10:40:12;;;;;;;2.38;1.70;;;33.80;28.70;;;;;;5025384;28;20031;-47
2021/05/31 10:42:58;;;;;;;2.25;1.50;;;33.40;30.00;;;;;;5027699;28;20039;-47
2021/05/31 10:45:26;;;;;;;2.88;1.63;;;34.20;30.20;;;;;;5027847;28;20049;-48
2021/05/31 10:48:12;;;;;;;2.13;1.65;;;33.90;31.10;;;;;;5027396;28;20113;-47
2021/05/31 10:50:46;;;;;;;2.15;1.52;;;32.80;30.10;;;;;;5028098;28;20087;-49
2021/05/31 10:53:18;;;;;;;1.75;1.50;;;32.70;29.30;;;;;;5027924;28;20318;-48
2021/05/31 10:56:03;;;;;;;3.55;1.30;;;33.10;31.70;;;;;;5028099;28;20017;-50
2021/05/31 10:58:38;;;;;;;4.40;1.60;;;33.10;29.70;;;;;;5027533;28;20026;-48
2021/05/31 11:01:08;;;;;;;2.50;1.70;;;32.80;31.30;;;;;;5027460;28;20029;-48
2021/05/31 11:04:02;;;;;;;2.83;1.30;;;33.30;30.70;;;;;;5027660;28;20280;-48
2021/05/31 11:06:38;;;;;;;3.72;1.15;;;33.10;29.80;;;;;;5028170;28;20014;-47
2021/05/31 11:09:09;;;;;;;2.50;1.40;;;32.70;30.30;;;;;;5026641;28;20029;-47
2021/05/31 11:11:41;;;;;;;1.55;1.30;;;32.90;30.10;;;;;;5027939;28;20052;-47
2021/05/31 11:14:08;;;;;;;3.35;1.58;;;33.10;30.60;;;;;;5009741;28;20524;-48
2021/05/31 11:16:51;;;;;;;1.60;1.13;;;33.10;29.80;;;;;;5027853;28;20512;-48
2021/05/31 11:19:16;;;;;;;2.55;1.20;;;34.90;28.50;;;;;;5009457;28;20032;-47
2021/05/31 11:21:44;;;;;;;2.13;1.38;;;34.90;29.10;;;;;;5029121;28;20025;-46
2021/05/31 11:24:13;;;;;;;2.10;1.48;;;34.50;30.00;;;;;;5032334;28;20028;-47
2021/05/31 11:26:41;;;;;;;2.40;1.33;;;33.90;29.70;;;;;;5031934;28;20553;-50
2021/05/31 11:29:09;;;;;;;3.22;1.80;;;33.30;31.60;;;;;;5029626;28;20041;-49
2021/05/31 11:31:36;;;;;;;2.40;1.50;;;33.80;28.50;;;;;;5032018;28;20033;-46
2021/05/31 11:34:03;;;;;;;2.75;1.50;;;34.00;28.30;;;;;;5031453;28;20038;-46
2021/05/31 11:36:39;;;;;;;2.60;1.50;;;33.70;30.00;;;;;;5031814;28;20083;-47
2021/05/31 11:39:08;;;;;;;1.25;1.10;;;33.30;29.70;;;;;;5030693;28;20434;-48
2021/05/31 11:41:39;;;;;;;2.30;1.40;;;33.00;30.10;;;;;;5031205;28;20433;-47
2021/05/31 11:44:29;;;;;;;2.33;1.30;;;33.10;30.10;;;;;;5031506;28;20056;-49
2021/05/31 11:46:56;;;;;;;;;;;32.80;28.20;;;;;;5011851;28;20026;-47
2021/05/31 11:49:23;;;;;;;1.45;1.00;;;32.90;27.80;;;;;;5011108;28;19905;-47
2021/05/31 11:52:02;;;;;;;2.20;1.23;;;32.90;28.20;;;;;;5011676;28;20061;-47
2021/05/31 11:54:30;;;;;;;;;;;32.70;28.30;;;;;;5012165;28;20021;-47
2021/05/31 11:57:02;;;;;;;3.70;1.30;;;33.00;28.30;;;;;;5030615;28;20260;-47
2021/05/31 11:59:37;;;;;;;2.80;1.23;;;32.10;28.10;;;;;;5030663;28;20033;-46
2021/05/31 12:02:06;;;;;;;2.17;1.40;;;30.80;28.60;;;;;;5030815;28;20030;-48
2021/05/31 12:04:32;;;;;;;2.30;1.57;;;30.20;29.50;;;;;;5028411;28;20430;-46
2021/05/31 12:07:00;;;;;;;2.53;2.05;;;29.70;32.30;;;;;;5011906;28;20027;-46
2021/05/31 12:09:27;;;;;;;2.55;2.08;;;29.50;30.60;;;;;;5029764;28;20022;-47
2021/05/31 12:11:54;;;;;;;2.47;1.50;;;28.40;31.40;;;;;;5030894;28;20423;-49
2021/05/31 12:14:23;;;;;;;4.65;1.38;;;28.10;33.70;;;;;;5030948;28;20093;-47
2021/05/31 12:16:57;;;;;;;1.60;1.50;;;27.80;33.40;;;;;;5029533;28;20030;-49
2021/05/31 12:19:29;;;;;;;5.57;1.67;;;27.70;31.90;;;;;;5029927;28;20082;-47
2021/05/31 12:21:56;;;;;;;1.88;1.58;;;27.40;34.30;;;;;;5029954;28;20034;-47
2021/05/31 12:24:29;;;;;;;4.97;1.63;;;27.10;32.90;;;;;;5030617;28;20087;-49
2021/05/31 12:26:58;;;;;;;1.67;1.50;;;26.90;34.60;;;;;;5030051;28;20090;-47
2021/05/31 12:29:34;;;;;;;2.97;1.55;;;26.70;36.10;;;;;;5018226;28;20040;-46
2021/05/31 12:32:03;;;;;;;2.85;1.60;;;26.50;34.30;;;;;;5019182;28;20030;-48
2021/05/31 12:34:29;;;;;;;4.65;1.45;;;26.50;36.60;;;;;;5019621;28;20025;-47
2021/05/31 12:36:55;;;;;;;2.38;1.58;;;26.40;37.00;;;;;;5020517;28;20433;-47
2021/05/31 12:39:21;;;;;;;2.00;1.33;;;26.50;37.00;;;;;;5020979;28;20034;-46
2021/05/31 12:41:48;;;;;;;5.10;1.73;;;26.30;35.50;;;;;;5022332;28;20422;-47
2021/05/31 12:44:14;;;;;;;3.30;1.70;;;26.20;35.30;;;;;;5028656;28;20383;-47
2021/05/31 12:46:42;;;;;;;2.97;1.55;;;26.10;35.10;;;;;;5029211;28;20017;-46
2021/05/31 12:49:08;;;;;;;3.45;2.05;;;26.10;39.20;;;;;;5029326;28;20280;-44
2021/05/31 12:51:37;;;;;;;2.17;1.70;;;26.20;37.90;;;;;;5029733;28;20120;-46
2021/05/31 12:54:04;;;;;;;2.42;1.77;;;26.20;35.50;;;;;;5029455;28;20029;-45
2021/05/31 12:56:35;;;;;;;1.90;1.50;;;26.10;36.40;;;;;;5029160;28;20146;-47
2021/05/31 12:59:09;;;;;;;5.28;1.63;;;26.10;36.90;;;;;;5028800;28;20084;-47
2021/05/31 13:01:35;;;;;;;4.30;1.85;;;25.90;36.80;;;;;;5029286;28;20021;-45
2021/05/31 13:04:00;;;;;;;1.48;1.38;;;25.80;36.70;;;;;;5028810;28;20036;-45
2021/05/31 13:06:34;;;;;;;1.50;1.38;;;25.80;37.10;;;;;;5030205;28;20018;-47
2021/05/31 13:09:01;;;;;;;2.08;1.52;;;25.70;38.70;;;;;;5027706;28;20022;-44
2021/05/31 13:11:44;;;;;;;4.70;1.92;;;25.70;40.00;;;;;;5024927;28;20499;-45
2021/05/31 13:14:15;;;;;;;3.53;2.00;;;25.70;37.10;;;;;;5028380;28;20033;-46